Time;durP1;ratioP1;P1;durP2;ratioP2;P2;SDS_P1;SDS_P2;PMS_P1;PMS_P2;Temp;Humidity;BMP_temperature;BMP_pressure;BME280_temperature;BME280_humidity;BME280_pressure;Samples;Min_cycle;Max_cycle;Signal;HPM_P1;HPM_P2
2022/12/20 00:00:59;;;;;;;57.63;32.65;;;;;;;0.15;100.00;100295.59;5054488;28;20037;-81
2022/12/20 00:03:24;;;;;;;52.05;31.48;;;;;;;0.21;100.00;100302.44;5054181;28;20111;-81
2022/12/20 00:05:50;;;;;;;61.13;33.58;;;;;;;0.21;100.00;100310.13;5054330;28;20029;-81
2022/12/20 00:08:15;;;;;;;58.22;30.60;;;;;;;0.11;100.00;100295.56;5054420;28;20054;-81
2022/12/20 00:10:43;;;;;;;58.10;31.42;;;;;;;0.12;100.00;100313.50;5054202;28;20040;-81
2022/12/20 00:13:09;;;;;;;53.28;30.75;;;;;;;0.18;100.00;100322.94;5053814;28;20522;-81
2022/12/20 00:15:34;;;;;;;57.78;32.17;;;;;;;0.28;100.00;100324.69;5052733;28;20021;-81
2022/12/20 00:18:00;;;;;;;53.75;31.52;;;;;;;0.28;100.00;100318.72;5054330;28;20021;-81
2022/12/20 00:20:26;;;;;;;55.80;31.33;;;;;;;0.27;100.00;100314.44;5053797;28;20029;-81
2022/12/20 00:22:51;;;;;;;52.50;31.08;;;;;;;0.20;100.00;100306.72;5054050;28;20464;-81
2022/12/20 00:25:19;;;;;;;54.72;32.20;;;;;;;0.15;100.00;100302.41;5052502;28;20025;-81
2022/12/20 00:27:44;;;;;;;50.65;31.02;;;;;;;0.22;100.00;100328.09;5053970;28;20024;-81
2022/12/20 00:30:10;;;;;;;49.42;29.45;;;;;;;0.13;100.00;100324.63;5053492;28;20364;-81
2022/12/20 00:32:35;;;;;;;50.28;30.83;;;;;;;0.16;100.00;100322.06;5052776;28;20163;-81
2022/12/20 00:35:00;;;;;;;53.67;30.00;;;;;;;0.18;100.00;100310.97;5053636;28;20436;-81
2022/12/20 00:37:26;;;;;;;54.60;33.38;;;;;;;0.09;100.00;100303.25;5053366;28;20056;-81
2022/12/20 00:39:51;;;;;;;54.67;31.15;;;;;;;0.09;100.00;100297.28;5053692;28;20021;-81
2022/12/20 00:42:16;;;;;;;54.10;30.90;;;;;;;0.14;100.00;100316.94;5051995;28;20023;-81
2022/12/20 00:44:41;;;;;;;60.83;34.05;;;;;;;0.11;100.00;100304.09;5053545;28;20013;-81
2022/12/20 00:47:07;;;;;;;58.90;33.38;;;;;;;0.03;100.00;100297.22;5053474;28;20158;-81
2022/12/20 00:49:32;;;;;;;53.05;31.73;;;;;;;-0.07;100.00;100284.34;5053649;28;20021;-81
2022/12/20 00:51:57;;;;;;;53.05;30.02;;;;;;;0.03;100.00;100292.94;5053599;28;20511;-81
2022/12/20 00:54:23;;;;;;;54.97;29.65;;;;;;;-0.01;100.00;100298.91;5053250;28;20021;-81
2022/12/20 00:56:48;;;;;;;54.97;30.30;;;;;;;-0.12;100.00;100285.19;5053403;28;20452;-81
2022/12/20 00:59:13;;;;;;;54.75;30.20;;;;;;;-0.09;100.00;100308.22;5051630;28;20053;-81
2022/12/20 01:01:38;;;;;;;55.95;30.13;;;;;;;-0.21;100.00;100279.97;5053500;28;20057;-81
2022/12/20 01:04:04;;;;;;;53.08;30.02;;;;;;;-0.16;100.00;100296.25;5053343;28;20027;-81
2022/12/20 01:06:30;;;;;;;55.15;29.35;;;;;;;-0.18;100.00;100297.94;5053194;28;20056;-81
2022/12/20 01:08:56;;;;;;;48.53;28.83;;;;;;;-0.18;100.00;100295.38;5053256;28;20021;-81
2022/12/20 01:11:35;;;;;;;50.20;29.08;;;;;;;-0.22;100.00;100294.47;5052984;28;20458;-81
2022/12/20 01:14:04;;;;;;;52.42;29.55;;;;;;;-0.31;100.00;100282.47;5052282;28;20025;-81
2022/12/20 01:16:37;;;;;;;42.42;26.13;;;;;;;-0.23;100.00;100297.03;5052816;28;20029;-81
2022/12/20 01:19:03;;;;;;;51.33;29.10;;;;;;;-0.25;100.00;100291.94;5051576;28;20543;-81
2022/12/20 01:21:29;;;;;;;50.33;28.48;;;;;;;-0.28;100.00;100297.00;5052745;28;20036;-81
2022/12/20 01:23:55;;;;;;;45.50;28.08;;;;;;;-0.33;100.00;100304.66;5052986;28;20530;-81
2022/12/20 01:26:23;;;;;;;51.75;28.73;;;;;;;-0.31;100.00;100296.97;5052547;28;20036;-81
2022/12/20 01:28:53;;;;;;;43.40;27.00;;;;;;;-0.33;100.00;100293.56;5052921;28;20021;-81
2022/12/20 01:31:20;;;;;;;49.97;28.87;;;;;;;-0.36;100.00;100289.25;5052624;28;20021;-81
2022/12/20 01:33:46;;;;;;;52.15;31.02;;;;;;;-0.34;100.00;100279.91;5051411;28;20486;-81
2022/12/20 01:36:18;;;;;;;46.72;27.73;;;;;;;-0.28;100.00;100272.25;5052281;28;20104;-81
2022/12/20 01:38:44;;;;;;;42.28;26.65;;;;;;;-0.22;100.00;100274.00;5051236;28;20376;-81
2022/12/20 01:41:17;;;;;;;47.58;27.00;;;;;;;-0.19;100.00;100265.50;5052803;28;20032;-81
2022/12/20 01:44:01;;;;;;;46.67;26.73;;;;;;;-0.21;100.00;100257.81;5051239;28;20366;-81
2022/12/20 01:46:29;;;;;;;51.83;30.48;;;;;;;-0.13;100.00;100258.69;5050821;28;20032;-81
2022/12/20 01:49:26;;;;;;;48.65;29.13;;;;;;;-0.10;100.00;100240.81;5052416;28;20021;-81
2022/12/20 01:51:57;;;;;;;43.38;26.50;;;;;;;-0.07;100.00;100234.84;5051991;28;20439;-81
2022/12/20 01:54:27;;;;;;;41.65;26.35;;;;;;;-0.15;100.00;100222.00;5050598;28;20016;-81
2022/12/20 01:57:03;;;;;;;43.53;27.17;;;;;;;-0.08;100.00;100234.00;5052289;28;20104;-81
2022/12/20 01:59:33;;;;;;;45.78;26.80;;;;;;;-0.03;100.00;100241.72;5052143;28;20449;-81
2022/12/20 02:02:03;;;;;;;39.80;23.33;;;;;;;-0.05;100.00;100220.34;5052046;28;20025;-81
2022/12/20 02:04:28;;;;;;;42.95;23.70;;;;;;;-0.05;100.00;100212.66;5052043;28;20028;-81
2022/12/20 02:06:54;;;;;;;39.72;26.02;;;;;;;0.02;100.00;100208.44;5050921;28;20044;-81
2022/12/20 02:09:19;;;;;;;43.75;25.63;;;;;;;0.14;100.00;100226.44;5051863;28;20082;-81
2022/12/20 02:12:03;;;;;;;39.50;22.98;;;;;;;0.17;100.00;100221.31;5052049;28;20024;-81
2022/12/20 02:14:44;;;;;;;43.67;25.08;;;;;;;0.16;100.00;100223.00;5050265;28;20378;-81
2022/12/20 02:17:24;;;;;;;42.50;26.75;;;;;;;0.07;100.00;100202.47;5052123;28;20060;-81
2022/12/20 02:20:08;;;;;;;40.55;24.63;;;;;;;0.03;100.00;100205.03;5052092;28;20113;-81
2022/12/20 02:23:03;;;;;;;42.85;25.63;;;;;;;0.06;100.00;100208.47;5051778;28;20009;-81
2022/12/20 02:25:45;;;;;;;45.08;25.30;;;;;;;0.03;100.00;100212.72;5050513;28;20373;-81
2022/12/20 02:28:13;;;;;;;39.47;24.23;;;;;;;0.00;100.00;100205.88;5051808;28;20025;-81
2022/12/20 02:30:42;;;;;;;44.03;26.48;;;;;;;-0.02;100.00;100205.84;5051676;28;20490;-81
2022/12/20 02:33:13;;;;;;;42.28;24.50;;;;;;;-0.09;100.00;100193.84;5050396;28;20021;-81
2022/12/20 02:35:40;;;;;;;41.55;24.25;;;;;;;-0.03;100.00;100191.34;5050350;28;20375;-81
2022/12/20 02:38:32;;;;;;;44.35;25.98;;;;;;;-0.01;100.00;100181.94;5050334;28;20045;-81
2022/12/20 02:41:03;;;;;;;44.45;25.80;;;;;;;-0.06;100.00;100187.91;5051662;28;20422;-81
2022/12/20 02:46:18;;;;;;;45.40;27.55;;;;;;;-0.04;100.00;100183.66;5051956;28;20028;-81
2022/12/20 02:48:47;;;;;;;40.58;26.58;;;;;;;-0.01;100.00;100187.06;5051473;28;20360;-81
2022/12/20 02:51:14;;;;;;;41.75;25.20;;;;;;;-0.01;100.00;100163.19;5051706;28;20025;-81
2022/12/20 02:53:39;;;;;;;39.30;24.67;;;;;;;-0.01;100.00;100176.84;5051254;28;20025;-81
2022/12/20 02:56:17;;;;;;;37.53;22.55;;;;;;;0.07;100.00;100187.13;5051345;28;20021;-81
2022/12/20 02:58:50;;;;;;;37.40;22.13;;;;;;;-0.03;100.00;100155.50;5051640;28;20132;-81
2022/12/20 03:01:47;;;;;;;34.60;21.13;;;;;;;0.18;100.00;100177.78;5051351;28;20032;-81
2022/12/20 03:04:14;;;;;;;34.30;20.52;;;;;;;0.10;100.00;100160.66;5029085;28;20061;-81
2022/12/20 03:07:05;;;;;;;34.53;20.15;;;;;;;0.21;100.00;100167.56;5012278;28;20021;-81
2022/12/20 03:09:32;;;;;;;37.03;21.13;;;;;;;0.16;100.00;100163.25;5029034;28;20041;-81
2022/12/20 03:11:58;;;;;;;37.35;22.33;;;;;;;0.27;100.00;100182.09;5029245;28;20082;-81
2022/12/20 03:14:23;;;;;;;38.40;25.15;;;;;;;0.27;100.00;100166.72;5028895;28;20128;-81
2022/12/20 03:16:49;;;;;;;42.00;25.48;;;;;;;0.23;100.00;100160.72;5029082;28;20025;-81
2022/12/20 03:19:15;;;;;;;37.63;22.83;;;;;;;0.32;100.00;100165.00;5028947;28;20420;-81
2022/12/20 03:21:41;;;;;;;38.70;22.65;;;;;;;0.34;100.00;100163.31;5028746;28;20037;-81
2022/12/20 03:24:06;;;;;;;36.22;23.27;;;;;;;0.28;100.00;100160.72;5029091;28;20033;-81
2022/12/20 03:26:31;;;;;;;33.83;22.23;;;;;;;0.34;100.00;100167.56;5028766;28;20081;-81
2022/12/20 03:28:57;;;;;;;41.22;24.58;;;;;;;0.32;100.00;100161.59;5012394;28;20041;-81
2022/12/20 03:31:22;;;;;;;36.78;21.85;;;;;;;0.35;100.00;100170.16;5028681;28;20021;-81
2022/12/20 03:33:47;;;;;;;38.10;23.23;;;;;;;0.37;100.00;100158.19;5029039;28;20132;-81
2022/12/20 03:36:13;;;;;;;37.78;22.33;;;;;;;0.36;100.00;100160.75;5028968;28;20021;-81
2022/12/20 03:38:38;;;;;;;36.13;22.27;;;;;;;0.35;100.00;100153.94;5031730;28;20034;-81
2022/12/20 03:41:03;;;;;;;34.63;21.63;;;;;;;0.36;100.00;100158.19;5035604;28;20079;-81
2022/12/20 03:43:29;;;;;;;39.35;23.23;;;;;;;0.40;100.00;100172.72;5054494;28;20110;-81
2022/12/20 03:45:54;;;;;;;35.38;21.40;;;;;;;0.32;100.00;100161.59;5054612;28;20435;-81
2022/12/20 03:48:19;;;;;;;36.15;22.35;;;;;;;0.41;100.00;100180.41;5054635;28;20070;-81
2022/12/20 03:50:44;;;;;;;34.17;21.15;;;;;;;0.42;100.00;100182.16;5054796;28;20047;-81
2022/12/20 03:53:10;;;;;;;34.47;21.50;;;;;;;0.45;100.00;100188.97;5054661;28;20201;-81
2022/12/20 03:55:35;;;;;;;37.75;22.55;;;;;;;0.44;100.00;100180.44;5053056;28;20024;-81
2022/12/20 03:58:01;;;;;;;35.17;21.42;;;;;;;0.46;100.00;100173.63;5054493;28;20449;-81
2022/12/20 04:00:26;;;;;;;39.42;22.60;;;;;;;0.39;100.00;100156.50;5054072;28;20060;-81
2022/12/20 04:02:51;;;;;;;38.45;23.38;;;;;;;0.47;100.00;100175.31;5053091;28;20111;-81
2022/12/20 04:05:17;;;;;;;36.15;22.50;;;;;;;0.36;100.00;100153.06;5053309;28;20067;-81
2022/12/20 04:07:44;;;;;;;38.70;24.05;;;;;;;0.41;100.00;100161.63;5054059;28;20456;-81
2022/12/20 04:10:09;;;;;;;35.92;22.33;;;;;;;0.35;100.00;100164.19;5054362;28;20114;-81
2022/12/20 04:12:35;;;;;;;37.20;22.13;;;;;;;0.32;100.00;100169.28;5054005;28;20025;-81
2022/12/20 04:15:00;;;;;;;38.28;21.98;;;;;;;0.31;100.00;100165.88;5054671;28;20021;-81
2022/12/20 04:17:25;;;;;;;37.13;21.08;;;;;;;0.37;100.00;100177.84;5053846;28;20425;-81
2022/12/20 04:19:51;;;;;;;35.30;22.15;;;;;;;0.37;100.00;100176.13;5054172;28;20083;-81
2022/12/20 04:22:16;;;;;;;33.53;21.65;;;;;;;0.39;100.00;100174.44;5054198;28;20013;-81
2022/12/20 04:24:41;;;;;;;35.97;21.50;;;;;;;0.36;100.00;100168.44;5053844;28;20452;-81
2022/12/20 04:27:06;;;;;;;35.47;22.58;;;;;;;0.36;100.00;100178.69;5054008;28;20094;-81
2022/12/20 04:29:32;;;;;;;32.72;20.58;;;;;;;0.34;100.00;100183.81;5053747;28;20487;-81
2022/12/20 04:31:57;;;;;;;34.70;20.95;;;;;;;0.29;100.00;100179.50;5053809;28;20453;-81
2022/12/20 04:34:22;;;;;;;39.92;23.60;;;;;;;0.28;100.00;100186.34;5052512;28;20029;-81
2022/12/20 04:36:48;;;;;;;36.00;22.77;;;;;;;0.30;100.00;100200.03;5054055;28;20198;-81
2022/12/20 04:39:13;;;;;;;37.10;22.80;;;;;;;0.18;100.00;100192.31;5053891;28;20029;-81
2022/12/20 04:41:38;;;;;;;38.17;23.88;;;;;;;0.20;100.00;100188.03;5053901;28;20474;-81
2022/12/20 04:44:04;;;;;;;39.20;23.00;;;;;;;0.11;100.00;100178.59;5053738;28;20721;-81
2022/12/20 04:46:29;;;;;;;42.75;24.73;;;;;;;0.07;100.00;100173.47;5053503;28;20364;-81
2022/12/20 04:48:54;;;;;;;43.13;24.63;;;;;;;0.05;100.00;100162.38;5053007;28;20021;-81
2022/12/20 04:51:20;;;;;;;44.33;25.55;;;;;;;0.05;100.00;100160.66;5053770;28;20456;-81
2022/12/20 04:53:48;;;;;;;40.35;25.83;;;;;;;0.11;100.00;100172.63;5053172;28;20400;-81
2022/12/20 04:56:23;;;;;;;39.83;25.17;;;;;;;0.05;100.00;100160.66;5052231;28;20088;-81
2022/12/20 04:58:50;;;;;;;43.95;25.63;;;;;;;0.05;100.00;100170.06;5052029;28;20124;-81
2022/12/20 05:01:16;;;;;;;44.05;25.17;;;;;;;0.10;100.00;100171.78;5053213;28;20028;-81
2022/12/20 05:03:42;;;;;;;39.33;24.00;;;;;;;0.10;100.00;100169.22;5053017;28;20032;-81
2022/12/20 05:06:08;;;;;;;47.20;24.90;;;;;;;0.11;100.00;100167.50;5053352;28;20074;-81
2022/12/20 05:08:33;;;;;;;43.58;24.92;;;;;;;0.09;100.00;100174.34;5051741;28;20533;-81
2022/12/20 05:10:59;;;;;;;44.35;24.85;;;;;;;0.04;100.00;100174.28;5053164;28;20099;-81
2022/12/20 05:13:24;;;;;;;41.50;24.08;;;;;;;-0.02;100.00;100164.88;5052798;28;20456;-81
2022/12/20 05:15:51;;;;;;;40.67;24.35;;;;;;;0.04;100.00;100156.34;5053034;28;20059;-81
2022/12/20 05:18:16;;;;;;;40.30;24.25;;;;;;;0.08;100.00;100154.69;5051899;28;20032;-81
2022/12/20 05:20:42;;;;;;;41.08;24.17;;;;;;;0.09;100.00;100158.97;5052777;28;20021;-81
2022/12/20 05:28:37;;;;;;;43.47;24.55;;;;;;;0.09;100.00;100171.78;5052875;28;20032;-81
2022/12/20 05:31:02;;;;;;;41.35;24.75;;;;;;;0.05;100.00;100157.25;5052869;28;20404;-81
2022/12/20 05:33:28;;;;;;;41.28;24.38;;;;;;;0.24;100.00;100185.47;5051235;28;20376;-81
2022/12/20 05:35:54;;;;;;;42.53;24.27;;;;;;;0.29;100.00;100180.38;5053080;28;20023;-81
2022/12/20 05:38:20;;;;;;;43.05;25.60;;;;;;;0.38;100.00;100153.91;5052424;28;20120;-81
2022/12/20 05:40:47;;;;;;;44.90;24.95;;;;;;;0.48;100.00;100158.22;5052169;28;20620;-81
2022/12/20 05:43:13;;;;;;;41.38;25.15;;;;;;;0.56;100.00;100171.91;5052567;28;20025;-81
2022/12/20 05:45:38;;;;;;;42.58;25.45;;;;;;;0.63;100.00;100176.22;5052171;28;20449;-81
2022/12/20 05:48:03;;;;;;;47.20;26.20;;;;;;;0.65;100.00;100171.94;5052530;28;20035;-81
2022/12/20 05:50:29;;;;;;;41.08;25.08;;;;;;;0.70;100.00;100167.66;5052201;28;20031;-81
2022/12/20 05:52:54;;;;;;;46.67;26.63;;;;;;;0.79;100.00;100176.22;5051028;28;20448;-81
2022/12/20 05:55:19;;;;;;;43.28;25.05;;;;;;;0.78;100.00;100162.56;5052252;28;20021;-81
2022/12/20 05:57:44;;;;;;;48.97;28.23;;;;;;;0.85;100.00;100171.13;5052245;28;20025;-81
2022/12/20 06:00:11;;;;;;;43.58;25.38;;;;;;;0.79;100.00;100145.47;5052097;28;20411;-81
2022/12/20 06:02:37;;;;;;;43.22;25.45;;;;;;;0.89;100.00;100157.44;5052183;28;20021;-81
2022/12/20 06:05:02;;;;;;;45.03;26.33;;;;;;;0.82;100.00;100141.19;5052218;28;20087;-81
2022/12/20 06:07:28;;;;;;;46.17;26.00;;;;;;;0.95;100.00;100152.31;5051919;28;20059;-81
2022/12/20 06:09:54;;;;;;;47.83;27.15;;;;;;;0.93;100.00;100147.19;5052010;28;20032;-81
2022/12/20 06:12:20;;;;;;;50.08;28.23;;;;;;;0.92;100.00;100142.03;5052290;28;20044;-81
2022/12/20 06:14:45;;;;;;;46.28;27.20;;;;;;;0.99;100.00;100154.03;5052209;28;20028;-81
2022/12/20 06:17:10;;;;;;;43.90;24.60;;;;;;;0.99;100.00;100162.56;5050799;28;20029;-81
2022/12/20 06:19:36;;;;;;;44.80;24.55;;;;;;;1.01;100.00;100165.13;5051693;28;20017;-81
2022/12/20 06:22:02;;;;;;;45.17;26.90;;;;;;;1.03;99.92;100168.56;5052006;28;20107;-81
2022/12/20 06:24:27;;;;;;;42.85;25.88;;;;;;;1.05;99.81;100161.72;5051844;28;20021;-81
2022/12/20 06:26:53;;;;;;;40.83;25.80;;;;;;;1.07;99.96;100165.16;5051805;28;20029;-81
2022/12/20 06:29:19;;;;;;;44.00;25.42;;;;;;;1.10;100.00;100161.75;5052011;28;20021;-81
2022/12/20 06:31:45;;;;;;;42.85;24.48;;;;;;;1.09;99.95;100160.84;5051694;28;20124;-81
2022/12/20 06:34:11;;;;;;;43.30;24.25;;;;;;;1.15;100.00;100157.47;5050612;28;20499;-81
2022/12/20 06:36:36;;;;;;;41.35;24.10;;;;;;;1.14;100.00;100148.91;5051537;28;20041;-81
2022/12/20 06:39:02;;;;;;;43.20;25.33;;;;;;;1.19;100.00;100151.47;5051710;28;20096;-81
2022/12/20 06:41:27;;;;;;;41.50;25.05;;;;;;;1.11;100.00;100132.66;5050574;28;20033;-81
2022/12/20 06:43:52;;;;;;;40.80;24.10;;;;;;;1.22;100.00;100151.44;5051493;28;20131;-81
2022/12/20 06:46:18;;;;;;;43.10;26.35;;;;;;;1.14;100.00;100130.94;5052117;28;20020;-81
2022/12/20 06:48:43;;;;;;;42.65;25.48;;;;;;;1.21;99.97;100150.59;5051534;28;20017;-81
2022/12/20 06:51:09;;;;;;;45.13;26.08;;;;;;;1.21;99.95;100155.72;5052077;28;20033;-81
2022/12/20 06:53:35;;;;;;;48.75;27.10;;;;;;;1.24;100.00;100158.28;5051298;28;20024;-81
2022/12/20 06:56:00;;;;;;;43.72;27.13;;;;;;;1.16;99.85;100138.63;5051499;28;20349;-81
2022/12/20 06:58:25;;;;;;;47.40;27.67;;;;;;;1.20;99.88;100150.59;5051695;28;20017;-81
2022/12/20 07:00:51;;;;;;;42.30;25.40;;;;;;;1.15;100.00;100140.34;5051358;28;20036;-81
2022/12/20 07:03:16;;;;;;;42.20;25.27;;;;;;;1.07;100.00;100133.50;5051610;28;20032;-81
2022/12/20 07:05:41;;;;;;;40.15;25.40;;;;;;;1.11;100.00;100138.63;5050028;28;20028;-81
2022/12/20 07:08:07;;;;;;;46.95;28.00;;;;;;;1.19;100.00;100157.44;5051455;28;20428;-81
2022/12/20 07:10:34;;;;;;;54.92;31.98;;;;;;;1.23;100.00;100160.88;5051762;28;20031;-81
2022/12/20 07:13:00;;;;;;;54.25;32.83;;;;;;;1.21;100.00;100157.44;5052562;28;20028;-81
2022/12/20 07:15:25;;;;;;;59.95;32.50;;;;;;;1.21;100.00;100142.03;5055534;28;20025;-81
2022/12/20 07:17:51;;;;;;;54.22;32.70;;;;;;;1.29;100.00;100158.28;5055153;28;20024;-81
2022/12/20 07:20:17;;;;;;;55.97;31.25;;;;;;;1.33;100.00;100160.00;5055215;28;20021;-81
2022/12/20 07:22:42;;;;;;;53.03;31.65;;;;;;;1.29;100.00;100144.59;5054849;28;20017;-81
2022/12/20 07:25:08;;;;;;;55.70;30.38;;;;;;;1.39;100.00;100165.13;5055318;28;20051;-81
2022/12/20 07:27:33;;;;;;;52.67;30.80;;;;;;;1.37;100.00;100154.00;5055030;28;20021;-81
2022/12/20 07:29:59;;;;;;;51.72;28.95;;;;;;;1.41;100.00;100158.28;5055293;28;20032;-81
2022/12/20 07:32:24;;;;;;;53.50;27.48;;;;;;;1.53;100.00;100166.81;5055060;28;20417;-81
2022/12/20 07:34:49;;;;;;;52.25;28.75;;;;;;;1.42;100.00;100144.56;5054778;28;20017;-81
2022/12/20 07:37:15;;;;;;;56.83;32.13;;;;;;;1.36;100.00;100147.16;5054889;28;20469;-81
2022/12/20 07:39:41;;;;;;;54.33;31.45;;;;;;;1.37;100.00;100158.28;5054776;28;20029;-81
2022/12/20 07:42:06;;;;;;;60.03;32.58;;;;;;;1.28;99.71;100154.03;5054940;28;20029;-81
2022/12/20 07:44:31;;;;;;;76.35;39.17;;;;;;;1.23;100.00;100168.56;5053619;28;20094;-81
2022/12/20 07:46:57;;;;;;;76.88;38.42;;;;;;;1.14;100.00;100171.16;5054573;28;20449;-81
2022/12/20 07:49:22;;;;;;;56.85;31.20;;;;;;;1.07;100.00;100162.56;5054665;28;20020;-81
2022/12/20 07:51:50;;;;;;;73.20;36.08;;;;;;;1.11;100.00;100176.25;5054287;28;20117;-81
2022/12/20 07:54:21;;;;;;;96.85;45.35;;;;;;;1.12;100.00;100167.72;5054745;28;20036;-81
2022/12/20 07:56:50;;;;;;;97.15;44.90;;;;;;;1.10;100.00;100161.75;5053190;28;20483;-81
2022/12/20 07:59:19;;;;;;;85.05;41.42;;;;;;;1.11;100.00;100150.63;5053223;28;20020;-81
2022/12/20 08:01:45;;;;;;;119.25;51.05;;;;;;;1.07;100.00;100146.34;5054360;28;20074;-81
2022/12/20 08:04:19;;;;;;;105.00;50.35;;;;;;;1.16;100.00;100148.91;5053079;28;20472;-81
2022/12/20 08:06:45;;;;;;;84.75;41.55;;;;;;;1.13;100.00;100143.75;5052990;28;20028;-81
2022/12/20 08:09:12;;;;;;;113.38;47.80;;;;;;;1.13;100.00;100136.06;5054406;28;20163;-81
2022/12/20 08:11:40;;;;;;;119.93;50.60;;;;;;;1.12;100.00;100122.38;5054142;28;20028;-81
2022/12/20 08:14:07;;;;;;;115.95;50.33;;;;;;;1.15;100.00;100121.53;5054275;28;20028;-81
2022/12/20 08:16:33;;;;;;;127.95;52.42;;;;;;;1.18;100.00;100124.97;5053099;28;20129;-81
2022/12/20 08:18:58;;;;;;;186.48;74.47;;;;;;;1.13;100.00;100118.94;5053873;28;20128;-81
2022/12/20 08:21:23;;;;;;;177.18;71.63;;;;;;;1.11;100.00;100118.13;5051368;28;20037;-81
2022/12/20 08:23:48;;;;;;;141.15;57.13;;;;;;;1.20;100.00;100146.31;5051153;28;20477;-81
2022/12/20 08:26:14;;;;;;;63.83;34.75;;;;;;;1.18;100.00;100142.91;5051637;28;20311;-81
2022/12/20 08:28:39;;;;;;;54.28;29.83;;;;;;;1.19;100.00;100136.06;5034694;28;20025;-81
2022/12/20 08:31:07;;;;;;;58.70;33.30;;;;;;;1.22;100.00;100148.88;5051542;28;20175;-81
2022/12/20 08:33:34;;;;;;;68.70;38.72;;;;;;;1.25;100.00;100139.47;5051432;28;20036;-81
2022/12/20 08:36:02;;;;;;;64.53;36.92;;;;;;;1.31;100.00;100148.91;5051143;28;20029;-81
2022/12/20 08:38:29;;;;;;;65.25;33.40;;;;;;;1.33;100.00;100138.63;5051235;28;20052;-81
2022/12/20 08:40:56;;;;;;;68.90;35.28;;;;;;;1.30;100.00;100148.88;5051012;28;20029;-81
2022/12/20 08:43:21;;;;;;;60.17;35.03;;;;;;;1.31;100.00;100160.88;5034528;28;20040;-81
2022/12/20 08:45:54;;;;;;;59.45;32.85;;;;;;;1.20;100.00;100135.22;5050978;28;20029;-81
2022/12/20 08:48:20;;;;;;;53.33;29.95;;;;;;;1.25;100.00;100144.59;5051133;28;20036;-81
2022/12/20 08:50:45;;;;;;;46.70;27.65;;;;;;;1.29;100.00;100147.19;5050852;28;20061;-81
2022/12/20 08:53:11;;;;;;;54.22;31.23;;;;;;;1.35;100.00;100152.28;5048713;28;20118;-81
2022/12/20 08:55:36;;;;;;;46.13;28.73;;;;;;;1.40;100.00;100148.03;5051737;28;20157;-81
2022/12/20 08:58:01;;;;;;;49.45;28.50;;;;;;;1.50;100.00;100168.53;5051580;28;20056;-81
2022/12/20 09:00:27;;;;;;;53.50;29.90;;;;;;;1.63;100.00;100166.78;5053046;28;20017;-81
2022/12/20 09:02:53;;;;;;;55.63;32.78;;;;;;;1.78;99.62;100168.47;5052656;28;20039;-81
2022/12/20 09:05:19;;;;;;;51.00;30.15;;;;;;;1.87;99.07;100154.75;5053208;28;20016;-81
2022/12/20 09:07:45;;;;;;;55.83;30.98;;;;;;;1.98;98.49;100156.44;5051604;28;20119;-81
2022/12/20 09:10:11;;;;;;;56.88;31.08;;;;;;;2.01;98.05;100145.28;5052821;28;20192;-81
2022/12/20 09:12:37;;;;;;;54.85;30.55;;;;;;;1.89;97.24;100123.06;5052722;28;20032;-81
2022/12/20 09:15:03;;;;;;;58.83;30.90;;;;;;;1.89;97.37;100132.47;5052620;28;20021;-81
2022/12/20 09:17:29;;;;;;;77.85;41.17;;;;;;;1.87;97.62;100140.19;5052724;28;20028;-81
2022/12/20 09:19:54;;;;;;;54.70;32.20;;;;;;;1.85;98.28;100139.34;5051290;28;20021;-81
2022/12/20 09:22:20;;;;;;;61.30;35.15;;;;;;;1.83;97.99;100128.22;5052910;28;20368;-81
2022/12/20 09:24:45;;;;;;;68.90;33.92;;;;;;;1.90;98.06;100129.06;5052802;28;20108;-81
2022/12/20 09:27:10;;;;;;;62.60;34.50;;;;;;;1.89;98.35;100112.78;5051395;28;20473;-81
2022/12/20 09:29:36;;;;;;;49.58;29.13;;;;;;;2.10;97.92;100123.81;5052620;28;20021;-81
2022/12/20 09:32:01;;;;;;;58.72;30.85;;;;;;;2.20;97.67;100115.22;5052226;28;20040;-81
2022/12/20 09:34:27;;;;;;;58.45;32.47;;;;;;;2.52;96.62;100121.88;5052348;28;20021;-81
2022/12/20 09:36:52;;;;;;;64.28;35.38;;;;;;;2.60;95.87;100115.81;5052185;28;20163;-81
2022/12/20 09:39:17;;;;;;;62.72;32.28;;;;;;;2.78;95.72;100121.72;5051457;28;20013;-81
2022/12/20 09:41:43;;;;;;;58.80;32.03;;;;;;;2.84;95.11;100114.81;5052258;28;20047;-81
2022/12/20 09:44:22;;;;;;;57.47;32.22;;;;;;;2.91;94.88;100107.91;5052446;28;20352;-81
2022/12/20 09:46:54;;;;;;;55.75;31.88;;;;;;;3.02;94.67;100118.94;5052003;28;20045;-81
2022/12/20 09:49:28;;;;;;;63.45;33.42;;;;;;;3.19;94.20;100118.81;5040244;28;20058;-81
2022/12/20 09:52:10;;;;;;;58.75;31.77;;;;;;;3.07;93.79;100081.16;5031950;28;20453;-81
2022/12/20 09:55:00;;;;;;;58.05;32.78;;;;;;;3.26;93.65;100125.59;5040038;28;20048;-81
2022/12/20 09:57:52;;;;;;;57.37;31.83;;;;;;;3.11;93.84;100126.59;5042749;28;20013;-81
2022/12/20 10:00:18;;;;;;;59.35;35.47;;;;;;;2.95;93.94;100120.75;5034780;28;20029;-81
2022/12/20 10:02:45;;;;;;;61.03;35.08;;;;;;;2.86;94.08;100127.66;5037064;28;20550;-81
2022/12/20 10:05:22;;;;;;;59.30;31.50;;;;;;;2.78;94.68;100119.13;5039020;28;20017;-81
2022/12/20 10:08:06;;;;;;;59.95;33.58;;;;;;;2.68;94.92;100111.50;5041931;28;20018;-81
2022/12/20 10:10:53;;;;;;;65.10;34.35;;;;;;;2.77;95.05;100133.72;5040495;28;20484;-81
2022/12/20 10:13:33;;;;;;;65.28;35.92;;;;;;;2.75;94.74;100128.59;5041673;28;20017;-81
2022/12/20 10:16:23;;;;;;;93.95;47.70;;;;;;;2.81;94.88;100122.53;5041558;28;20024;-81
2022/12/20 10:18:51;;;;;;;87.88;48.42;;;;;;;2.85;94.64;100110.50;5042311;28;20052;-81
2022/12/20 10:21:26;;;;;;;133.98;70.93;;;;;;;2.86;94.81;100115.63;5041609;28;20452;-82
2022/12/20 10:24:04;;;;;;;123.97;66.55;;;;;;;2.94;95.17;100129.28;5040102;28;20469;-82
2022/12/20 10:26:32;;;;;;;145.55;76.40;;;;;;;2.88;95.03;100119.06;5040142;28;20100;-84
2022/12/20 10:28:57;;;;;;;154.63;68.03;;;;;;;2.95;95.06;100127.56;5041033;28;20462;-85
2022/12/20 10:31:24;;;;;;;321.50;138.68;;;;;;;2.93;94.81;100112.16;5039950;28;20120;-84
2022/12/20 10:33:56;;;;;;;95.05;48.35;;;;;;;3.03;94.85;100123.22;5039273;28;20017;-86
2022/12/20 10:36:30;;;;;;;80.07;40.58;;;;;;;3.07;94.55;100116.34;5040508;28;20047;-85
2022/12/20 10:39:04;;;;;;;85.45;39.28;;;;;;;3.11;94.23;100100.84;5040985;28;20021;-85
2022/12/20 10:41:50;;;;;;;153.13;60.00;;;;;;;3.23;93.90;100113.59;5040734;28;20052;-86
2022/12/20 10:44:22;;;;;;;69.88;37.08;;;;;;;3.27;93.65;100119.59;5042275;28;20049;-85
2022/12/20 10:46:52;;;;;;;63.28;34.20;;;;;;;3.28;93.45;100112.72;5050155;28;20028;-85
2022/12/20 10:49:25;;;;;;;75.38;37.17;;;;;;;3.33;93.47;100118.66;5054662;28;20017;-87
2022/12/20 10:52:00;;;;;;;63.95;35.88;;;;;;;3.32;93.29;100091.22;5055519;28;20021;-88
2022/12/20 10:54:33;;;;;;;118.45;47.15;;;;;;;3.39;93.37;100100.59;5055779;28;20441;-84
2022/12/20 10:57:02;;;;;;;67.78;34.25;;;;;;;3.32;92.78;100075.78;5055553;28;20025;-86
2022/12/20 10:59:33;;;;;;;74.53;38.63;;;;;;;3.43;92.71;100097.13;5055468;28;20027;-87
2022/12/20 11:01:58;;;;;;;74.88;36.88;;;;;;;3.40;92.66;100072.25;5055236;28;20469;-84
2022/12/20 11:04:32;;;;;;;70.85;37.22;;;;;;;3.57;93.00;100074.63;5055556;28;20040;-79
2022/12/20 11:07:00;;;;;;;69.65;35.80;;;;;;;3.55;92.08;100086.69;5055310;28;20052;-79
2022/12/20 11:09:35;;;;;;;60.05;31.90;;;;;;;3.49;91.55;100094.47;5055356;28;20035;-77
2022/12/20 11:12:00;;;;;;;59.35;31.90;;;;;;;3.60;92.59;100084.91;5055041;28;20078;-77
2022/12/20 11:14:26;;;;;;;136.88;54.10;;;;;;;3.61;91.92;100063.44;5055315;28;20052;-77
2022/12/20 11:16:54;;;;;;;58.22;30.17;;;;;;;3.49;91.60;100046.38;5053885;28;20178;-77
2022/12/20 11:19:52;;;;;;;47.78;27.83;;;;;;;3.89;92.19;100071.69;5055328;28;20047;-77
2022/12/20 11:22:25;;;;;;;73.03;39.95;;;;;;;3.95;91.09;100061.28;5055143;28;20024;-77